Healy, AK

9:40 PM AKDT on May 25, 2017 (GMT -0800)
Subdivision - Sulfide (Tench) | | Change Station
Active Advisory: Winter Weather Advisory

Elev 1374 ft 63.87 °N, 148.99 °W | Updated 21 seconds ago

Mostly Cloudy
Mostly Cloudy
41.7 °F
Feels Like 42 °F
N
0.0
Wind Variable Wind from North
Gusts 0.0 mph

Today
High -- | Low -- °F
--% Chance of Precip.
Yesterday
High -- | Low -- °F
Precip. -- in
Pressure 29.81 in
Visibility 10.0 miles
Clouds Scattered Clouds 6500 ft
Windchill 42 °F
Dew Point 30 °F
Humidity 63%
Rainfall 0.19 in
Snow Depth Not available.
4:13 AM 11:35 PM
New Moon, 0% visible
METAR PAIN 260536Z 17004KT 10SM SCT065 06/M06 A2981 RMK AO1
Pressure 29.81 in
Visibility 10.0 miles
Clouds Scattered Clouds 6500 ft
Windchill 42 °F
Dew Point 30 °F
Humidity 63%
Rainfall 0.19 in
Snow Depth Not available.
4:13 AM 11:35 PM
New Moon, 0% visible
METAR PAIN 260536Z 17004KT 10SM SCT065 06/M06 A2981 RMK AO1

Get Your Daily Forecast Email!

Thanks for signing up!

Be on the lookout for a verification email in your inbox.

You'll start receiving severe weather alerts in your inbox..

×

10-Day Weather Forecast

Almanac

Astronomy

May. 25, 2017 Rise Set
Actual Time
Civil Twilight
Nautical Twilight
Astronomical Twilight
Moon
Length of Visible Light
Length of Day
Tomorrow will be .
, % of the Moon is Illuminated

Today's Extremes

State Highs State Lows

Community

WunderPhotos

Category 6

Welcome to Category 6. This is the collective home for Weather Underground's featured writeups by Dr. Jeff Masters (right), Bob Henson (left), Chris Burt, and other regular contributors.

Nearby

Air Quality

  Air Quality AQ Index Pollutant
Not available.

Snow Depth

Station Depth Elevation

Earthquake Activity

City Distance Mag. Time & Date
Minimum magnitude displayed is 2.5.

Coastal Water Temperatures

Place Temperature

Stations

Nearby Weather Stations

Station Location Temp. Windchill Dew Point Humidity Wind Precip. Elev Updated Type
                   

Watches & Warnings

Winter Weather Advisory
Issued: 11:37 AM AKDT May. 25, 2017 – National Weather Service

... Winter Weather Advisory remains in effect until 6 am akdt
Friday...

* location... mainly from Polychrome Pass west.

* Snow... an additional 3 to 6 inches for a storm total of 7 to
11 inches.

* Timing... snow redeveloping in the late afternoon, heavy at
times, will continue overnight tapering off toward morning.

* Impacts... visibility may be greatly reduced. Travel and
outdoor activities will be difficult as snow accumulates
rapidly.

Precautionary/preparedness actions...

A Winter Weather Advisory means that one or more winter weather
hazards are expected to cause travel difficulties.